الصفحة الرئيسية
METAR-TAF:

METAR-TAF

مطار :

فلاغستاف, أريزونا, الولايات المتحدة

دائرة عرض: 35-08-25N, خط طول: 111-40-20W, ارتفاع: 2137 متر

مراقبة الطقس الحالي

تاريخ ووقت الإصدار 9 دقيقة قبل الساعة 02:57UTC
رياح هادئة
درجة الحرارة -2°درجة مئوية
الرطوبة 80%
ضغط 1022 hPa
الرؤية: 16.1 كم
سماء صافية

METAR: KFLG 120257Z AUTO 00000KT 10SM CLR M02/M05 A3018 RMK AO2 SLP223 T10171050 51006

زمن: 20:06 (03:06 UTC)

توقعات

تاريخ ووقت الإصدار 3ساعات و 45 دقيقة قبل الساعة 23:21UTC
التوقعات صالحة من12 الساعة 00 UTC إلى 12 الساعة 24 UTC
ريح 6 عقدةمن اتجاهات متغيرة
الرؤية: 10 كم
غيوم متفرقة على ارتفاع 12000 قدم
من 12 الساعة 1700 UTC
ريح 10 عقدة من الغرب/الجنوب الغربي تتزايد حتى 18 عقدة
الرؤية: 10 كم
غيوم متفرقة على ارتفاع 25000 قدم
من 12 الساعة 2000 UTC
ريح 20 عقدة من الغرب تتزايد حتى 30 عقدة
الرؤية: 10 كم
غيوم متفرقة على ارتفاع 20000 قدم

TAF: KFLG 112321Z 1200/1224 VRB06KT P6SM SCT120 FM121700 24010G18KT P6SM SCT250 FM122000 26020G30KT P6SM SCT200

أرصاد الطقس والتوقعات من أكثر من 4000 مطار (تقارير الطقس للمطار METAR والتنبؤ بالطقس بالمطارTAF).

المحطات المتاحة هي النقط الصفراء والحمراء على الخريطة.

حرك المؤشر فوق النقطة لمعرفة اسم المحطة.

ثم انقر لمعرفة أرصاد وتوقعات الطقس.

لتغيير الخارطة: اضغط على الأزرار الخضراء مع رمز الصليب الأسود للتكبير. على الزر الأخضر مع شرطة للتصغير، أو على الأسهم الخضراء للخرائط المجاورة.


METAR-TAF: